Time,TemperatureF,DewpointF,PressureIn,WindDirection,WindDirectionDegrees,WindSpeedMPH,WindSpeedGustMPH,Humidity,HourlyPrecipIn,Conditions,Clouds,dailyrainin,SoftwareType,DateUTC
2013-04-05 00:00:00,48.6,37.0,30.06,West,270,0.0,0.4,64,0.00,,,0.00,WUHU216HW,2013-04-05 05:00:00,
2013-04-05 00:05:00,48.4,36.8,30.07,West,270,0.4,1.3,64,0.00,,,0.00,WUHU216HW,2013-04-05 05:05:00,
2013-04-05 00:10:00,48.2,37.0,30.06,West,270,0.2,1.3,65,0.00,,,0.00,WUHU216HW,2013-04-05 05:10:00,
2013-04-05 00:15:00,48.2,37.0,30.07,West,270,1.1,1.1,65,0.00,,,0.00,WUHU216HW,2013-04-05 05:15:00,
2013-04-05 00:20:00,48.1,36.8,30.07,West,270,0.4,1.1,65,0.00,,,0.00,WUHU216HW,2013-04-05 05:20:00,
2013-04-05 00:25:00,47.9,37.0,30.07,West,270,0.4,1.1,66,0.00,,,0.00,WUHU216HW,2013-04-05 05:25:00,
2013-04-05 00:30:00,47.9,37.0,30.07,West,270,0.4,0.9,66,0.00,,,0.00,WUHU216HW,2013-04-05 05:30:00,
2013-04-05 00:35:00,47.9,37.0,30.06,West,270,0.4,0.7,66,0.00,,,0.00,WUHU216HW,2013-04-05 05:35:00,
2013-04-05 00:40:00,47.7,37.3,30.07,West,270,0.4,0.9,67,0.00,,,0.00,WUHU216HW,2013-04-05 05:40:00,
2013-04-05 11:30:00,68.4,47.9,30.10,SW,225,0.4,0.4,48,0.00,,,0.00,WUHU216HW,2013-04-05 16:30:00,
2013-04-05 11:35:00,68.0,47.0,30.10,ESE,113,3.8,8.3,47,0.00,,,0.00,WUHU216HW,2013-04-05 16:35:00,
2013-04-05 11:38:00,67.5,47.1,30.09,SW,225,1.8,1.8,48,0.00,,,0.00,WUHU216HW,2013-04-05 16:38:00,
2013-04-05 11:40:00,67.5,47.1,30.09,SW,225,1.8,8.3,48,0.00,,,0.00,WUHU216HW,2013-04-05 16:40:00,
2013-04-05 11:45:00,67.5,47.1,30.09,SW,225,1.8,3.4,48,0.00,,,0.00,WUHU216HW,2013-04-05 16:45:00,
2013-04-05 12:00:00,68.2,46.5,30.10,ESE,113,6.0,6.0,46,0.00,,,0.00,WUHU216HW,2013-04-05 17:00:00,
2013-04-05 12:05:00,68.2,46.0,30.10,ESE,113,6.0,6.0,45,0.00,,,0.00,WUHU216HW,2013-04-05 17:05:00,
2013-04-05 12:10:00,68.2,46.0,30.10,ESE,113,6.0,6.0,45,0.00,,,0.00,WUHU216HW,2013-04-05 17:10:00,
2013-04-05 12:30:00,70.0,46.5,30.09,North,0,0.0,0.0,43,0.00,,,0.00,WUHU216HW,2013-04-05 17:30:00,
2013-04-05 12:35:00,70.0,46.5,30.09,North,0,0.0,0.0,43,0.00,,,0.00,WUHU216HW,2013-04-05 17:35:00,
2013-04-05 12:40:00,70.0,46.5,30.09,North,0,0.0,0.0,43,0.00,,,0.00,WUHU216HW,2013-04-05 17:40:00,
2013-04-05 13:00:00,69.5,44.1,30.08,North,0,0.0,0.0,40,0.00,,,0.00,WUHU216HW,2013-04-05 18:00:00,
2013-04-05 13:05:00,69.5,44.1,30.08,North,0,0.0,0.0,40,0.00,,,0.00,WUHU216HW,2013-04-05 18:05:00,
2013-04-05 13:10:00,69.5,44.1,30.08,North,0,0.0,0.0,40,0.00,,,0.00,WUHU216HW,2013-04-05 18:10:00,
2013-04-05 13:30:00,68.8,43.5,30.06,North,0,0.0,0.0,40,0.00,,,0.00,WUHU216HW,2013-04-05 18:30:00,
2013-04-05 13:35:00,68.8,43.5,30.06,North,0,0.0,0.0,40,0.00,,,0.00,WUHU216HW,2013-04-05 18:35:00,
2013-04-05 13:40:00,68.8,43.5,30.06,North,0,0.0,0.0,40,0.00,,,0.00,WUHU216HW,2013-04-05 18:40:00,
2013-04-05 14:00:00,70.9,45.5,30.03,East,90,2.5,2.5,40,0.00,,,0.00,WUHU216HW,2013-04-05 19:00:00,
2013-04-05 14:05:00,70.9,44.7,30.03,ESE,113,3.4,3.4,39,0.00,,,0.00,WUHU216HW,2013-04-05 19:05:00,
2013-04-05 14:10:00,70.9,44.7,30.03,ESE,113,3.4,3.4,39,0.00,,,0.00,WUHU216HW,2013-04-05 19:10:00,
2013-04-05 14:30:00,70.9,41.8,30.02,WSW,248,2.5,2.5,35,0.00,,,0.00,WUHU216HW,2013-04-05 19:30:00,
2013-04-05 14:35:00,70.9,41.8,30.02,WSW,248,2.5,2.5,35,0.00,,,0.00,WUHU216HW,2013-04-05 19:35:00,
2013-04-05 14:40:00,70.9,41.8,30.02,WSW,248,2.5,2.5,35,0.00,,,0.00,WUHU216HW,2013-04-05 19:40:00,
2013-04-05 15:00:00,71.5,41.5,30.00,WSW,248,2.5,2.5,34,0.00,,,0.00,WUHU216HW,2013-04-05 20:00:00,
2013-04-05 15:05:00,71.6,41.7,30.00,SSW,203,2.0,3.4,34,0.00,,,0.00,WUHU216HW,2013-04-05 20:05:00,
2013-04-05 15:10:00,71.6,41.7,30.00,SSW,203,2.0,3.4,34,0.00,,,0.00,WUHU216HW,2013-04-05 20:10:00,
2013-04-05 15:30:00,71.6,43.1,29.98,SSW,203,6.5,6.5,36,0.00,,,0.00,WUHU216HW,2013-04-05 20:30:00,
2013-04-05 15:35:00,71.8,43.3,29.98,SSW,203,7.4,7.4,36,0.00,,,0.00,WUHU216HW,2013-04-05 20:35:00,
2013-04-05 15:40:00,71.8,43.3,29.98,SSW,203,7.4,7.4,36,0.00,,,0.00,WUHU216HW,2013-04-05 20:40:00,
2013-04-05 16:00:00,72.2,44.4,29.97,SSE,158,5.6,5.6,37,0.00,,,0.00,WUHU216HW,2013-04-05 21:00:00,
2013-04-05 16:05:00,72.2,44.4,29.97,SSE,158,5.4,5.6,37,0.00,,,0.00,WUHU216HW,2013-04-05 21:05:00,
2013-04-05 16:30:00,72.0,44.9,29.95,SW,225,3.4,3.4,38,0.00,,,0.00,WUHU216HW,2013-04-05 21:30:00,
2013-04-05 16:35:00,72.2,45.1,29.95,South,180,4.7,6.5,38,0.00,,,0.00,WUHU216HW,2013-04-05 21:35:00,
2013-04-05 16:40:00,72.0,44.2,29.95,SSE,158,6.3,9.2,37,0.00,,,0.00,WUHU216HW,2013-04-05 21:40:00,
2013-04-05 16:45:00,71.8,44.0,29.95,South,180,2.0,9.2,37,0.00,,,0.00,WUHU216HW,2013-04-05 21:45:00,
2013-04-05 16:51:00,71.6,43.8,29.95,SSE,158,3.6,7.2,37,0.00,,,0.00,WUHU216HW,2013-04-05 21:51:00,
2013-04-05 16:56:00,71.6,43.8,29.94,SSW,203,4.0,8.1,37,0.00,,,0.00,WUHU216HW,2013-04-05 21:56:00,
2013-04-05 17:01:00,71.8,44.0,29.94,SE,135,6.3,8.1,37,0.00,,,0.00,WUHU216HW,2013-04-05 22:01:00,
2013-04-05 17:06:00,71.6,43.8,29.94,SE,135,3.6,7.2,37,0.00,,,0.00,WUHU216HW,2013-04-05 22:06:00,
2013-04-05 17:11:00,71.8,42.6,29.93,ESE,113,8.1,8.1,35,0.00,,,0.00,WUHU216HW,2013-04-05 22:11:00,
2013-04-05 17:16:00,71.8,44.0,29.94,SSE,158,6.9,8.5,37,0.00,,,0.00,WUHU216HW,2013-04-05 22:16:00,
2013-04-05 17:21:00,71.6,42.4,29.93,ESE,113,9.2,9.2,35,0.00,,,0.00,WUHU216HW,2013-04-05 22:21:00,
2013-04-05 17:26:00,71.5,42.2,29.93,South,180,6.5,9.2,35,0.00,,,0.00,WUHU216HW,2013-04-05 22:26:00,
2013-04-05 17:31:00,71.5,43.8,29.93,SE,135,6.9,10.1,37,0.00,,,0.00,WUHU216HW,2013-04-05 22:31:00,
2013-04-05 17:36:00,71.3,42.0,29.93,SE,135,8.5,10.1,35,0.00,,,0.00,WUHU216HW,2013-04-05 22:36:00,
2013-04-05 17:41:00,71.1,42.0,29.92,SSE,158,6.0,9.8,35,0.00,,,0.00,WUHU216HW,2013-04-05 22:41:00,
2013-04-05 17:46:00,70.9,42.5,29.92,SE,135,6.3,9.8,36,0.00,,,0.00,WUHU216HW,2013-04-05 22:46:00,
2013-04-05 17:51:00,70.9,42.5,29.92,South,180,4.3,9.2,36,0.00,,,0.00,WUHU216HW,2013-04-05 22:51:00,
2013-04-05 17:56:00,70.9,43.2,29.92,South,180,5.1,7.6,37,0.00,,,0.00,WUHU216HW,2013-04-05 22:56:00,
2013-04-05 18:02:00,70.4,42.0,29.91,SE,135,10.1,11.4,36,0.00,,,0.00,WUHU216HW,2013-04-05 23:02:00,
2013-04-05 18:07:00,70.0,42.4,29.91,South,180,4.5,11.4,37,0.00,,,0.00,WUHU216HW,2013-04-05 23:07:00,
2013-04-05 18:12:00,69.8,43.0,29.91,SSW,203,4.3,12.1,38,0.00,,,0.00,WUHU216HW,2013-04-05 23:12:00,
2013-04-05 18:17:00,69.7,43.6,29.91,SSE,158,5.1,12.1,39,0.00,,,0.00,WUHU216HW,2013-04-05 23:17:00,
2013-04-05 18:22:00,69.7,43.6,29.91,SSE,158,4.9,6.5,39,0.00,,,0.00,WUHU216HW,2013-04-05 23:22:00,
2013-04-05 18:27:00,69.5,43.4,29.91,East,90,4.7,7.8,39,0.00,,,0.00,WUHU216HW,2013-04-05 23:27:00,
2013-04-05 18:32:00,69.5,43.4,29.91,ESE,113,6.0,8.9,39,0.00,,,0.00,WUHU216HW,2013-04-05 23:32:00,
2013-04-05 18:37:00,69.1,43.8,29.91,SSE,158,4.9,8.9,40,0.00,,,0.00,WUHU216HW,2013-04-05 23:37:00,
2013-04-05 18:42:00,68.9,44.3,29.91,SE,135,5.4,8.5,41,0.00,,,0.00,WUHU216HW,2013-04-05 23:42:00,
2013-04-05 18:47:00,68.6,43.9,29.91,ESE,113,4.7,9.6,41,0.00,,,0.00,WUHU216HW,2013-04-05 23:47:00,
2013-04-05 18:52:00,68.4,44.4,29.91,SE,135,8.3,9.6,42,0.00,,,0.00,WUHU216HW,2013-04-05 23:52:00,
2013-04-05 18:57:00,68.0,44.0,29.90,ESE,113,6.9,11.2,42,0.00,,,0.00,WUHU216HW,2013-04-05 23:57:00,
2013-04-05 19:02:00,67.9,43.3,29.90,SE,135,6.3,11.2,41,0.00,,,0.00,WUHU216HW,2013-04-06 00:02:00,
2013-04-05 19:07:00,67.5,42.9,29.90,East,90,2.7,9.2,41,0.00,,,0.00,WUHU216HW,2013-04-06 00:07:00,
2013-04-05 19:12:00,67.3,43.4,29.90,SE,135,5.6,9.2,42,0.00,,,0.00,WUHU216HW,2013-04-06 00:12:00,
2013-04-05 19:17:00,66.8,43.5,29.90,SE,135,5.6,8.7,43,0.00,,,0.00,WUHU216HW,2013-04-06 00:17:00,
2013-04-05 19:22:00,66.6,43.3,29.90,SE,135,6.9,9.6,43,0.00,,,0.00,WUHU216HW,2013-04-06 00:22:00,
2013-04-05 19:27:00,66.2,43.6,29.89,ESE,113,3.8,9.6,44,0.00,,,0.00,WUHU216HW,2013-04-06 00:27:00,
2013-04-05 19:32:00,65.9,43.8,29.89,SE,135,4.0,7.6,45,0.00,,,0.00,WUHU216HW,2013-04-06 00:32:00,
2013-04-05 19:37:00,65.5,43.5,29.88,ESE,113,6.0,9.2,45,0.00,,,0.00,WUHU216HW,2013-04-06 00:37:00,
2013-04-05 19:42:00,65.2,43.7,29.88,East,90,6.3,9.6,46,0.00,,,0.00,WUHU216HW,2013-04-06 00:42:00,
2013-04-05 19:47:00,65.0,43.6,29.88,ESE,113,6.7,10.7,46,0.00,,,0.00,WUHU216HW,2013-04-06 00:47:00,
2013-04-05 19:52:00,64.8,44.0,29.88,ESE,113,8.3,10.7,47,0.00,,,0.00,WUHU216HW,2013-04-06 00:52:00,
2013-04-05 19:57:00,64.6,43.8,29.88,East,90,4.7,9.8,47,0.00,,,0.00,WUHU216HW,2013-04-06 00:57:00,
2013-04-05 20:02:00,64.4,43.7,29.88,SSE,158,6.0,10.3,47,0.00,,,0.00,WUHU216HW,2013-04-06 01:02:00,
2013-04-05 20:07:00,64.4,43.7,29.88,SE,135,3.6,10.3,47,0.00,,,0.00,WUHU216HW,2013-04-06 01:07:00,
2013-04-05 20:12:00,64.3,44.0,29.88,East,90,2.0,9.2,48,0.00,,,0.00,WUHU216HW,2013-04-06 01:12:00,
2013-04-05 20:17:00,64.3,44.0,29.88,ESE,113,7.4,9.2,48,0.00,,,0.00,WUHU216HW,2013-04-06 01:17:00,
2013-04-05 20:22:00,64.1,43.9,29.88,SSE,158,4.0,7.4,48,0.00,,,0.00,WUHU216HW,2013-04-06 01:22:00,
2013-04-05 20:27:00,64.1,43.9,29.88,SSE,158,5.1,8.1,48,0.00,,,0.00,WUHU216HW,2013-04-06 01:27:00,
2013-04-05 20:32:00,63.9,43.8,29.88,SE,135,3.4,8.1,48,0.00,,,0.00,WUHU216HW,2013-04-06 01:32:00,
2013-04-05 20:37:00,63.7,43.6,29.88,SSE,158,3.8,7.2,48,0.00,,,0.00,WUHU216HW,2013-04-06 01:37:00,
2013-04-05 20:43:00,63.7,43.6,29.88,SSE,158,2.5,6.5,48,0.00,,,0.00,WUHU216HW,2013-04-06 01:43:00,
2013-04-05 20:48:00,63.7,44.1,29.88,SE,135,2.9,6.3,49,0.00,,,0.00,WUHU216HW,2013-04-06 01:48:00,
2013-04-05 20:53:00,63.5,44.0,29.88,South,180,2.9,6.3,49,0.00,,,0.00,WUHU216HW,2013-04-06 01:53:00,
2013-04-05 20:58:00,63.5,44.0,29.88,SSW,203,4.3,6.3,49,0.00,,,0.00,WUHU216HW,2013-04-06 01:58:00,
2013-04-05 21:03:00,63.4,43.8,29.88,SSE,158,3.4,5.4,49,0.00,,,0.00,WUHU216HW,2013-04-06 02:03:00,
2013-04-05 21:08:00,63.2,43.7,29.88,SSE,158,2.5,5.4,49,0.00,,,0.00,WUHU216HW,2013-04-06 02:08:00,
2013-04-05 21:13:00,63.0,44.1,29.88,SSE,158,1.6,4.3,50,0.00,,,0.00,WUHU216HW,2013-04-06 02:13:00,
2013-04-05 21:18:00,63.0,44.1,29.88,SE,135,2.9,4.9,50,0.00,,,0.00,WUHU216HW,2013-04-06 02:18:00,
2013-04-05 21:23:00,62.8,43.9,29.88,South,180,2.0,4.9,50,0.00,,,0.00,WUHU216HW,2013-04-06 02:23:00,
2013-04-05 21:28:00,62.6,43.7,29.88,ESE,113,1.3,4.9,50,0.00,,,0.00,WUHU216HW,2013-04-06 02:28:00,
2013-04-05 21:33:00,62.3,43.4,29.88,SSE,158,0.9,4.3,50,0.00,,,0.00,WUHU216HW,2013-04-06 02:33:00,
2013-04-05 21:38:00,62.3,43.4,29.88,South,180,2.2,4.0,50,0.00,,,0.00,WUHU216HW,2013-04-06 02:38:00,
2013-04-05 21:43:00,62.3,43.9,29.89,South,180,3.4,4.0,51,0.00,,,0.00,WUHU216HW,2013-04-06 02:43:00,
2013-04-05 21:48:00,62.3,43.9,29.89,SSW,203,1.6,4.0,51,0.00,,,0.00,WUHU216HW,2013-04-06 02:48:00,
2013-04-05 21:53:00,62.1,43.7,29.89,SSE,158,1.3,4.0,51,0.00,,,0.00,WUHU216HW,2013-04-06 02:53:00,
2013-04-05 21:58:00,61.9,43.6,29.89,ESE,113,1.6,3.1,51,0.00,,,0.00,WUHU216HW,2013-04-06 02:58:00,
2013-04-05 22:03:00,61.9,44.1,29.89,ESE,113,1.6,3.8,52,0.00,,,0.00,WUHU216HW,2013-04-06 03:03:00,
2013-04-05 22:08:00,61.6,43.7,29.89,South,180,1.6,3.8,52,0.00,,,0.00,WUHU216HW,2013-04-06 03:08:00,
2013-04-05 22:13:00,61.2,43.9,29.88,SE,135,2.2,3.6,53,0.00,,,0.00,WUHU216HW,2013-04-06 03:13:00,
2013-04-05 22:18:00,61.2,43.9,29.88,SE,135,3.4,4.0,53,0.00,,,0.00,WUHU216HW,2013-04-06 03:18:00,
2013-04-05 22:23:00,61.0,44.2,29.88,South,180,1.8,4.0,54,0.00,,,0.00,WUHU216HW,2013-04-06 03:23:00,
2013-04-05 22:28:00,61.0,44.2,29.89,SSE,158,2.2,4.0,54,0.00,,,0.00,WUHU216HW,2013-04-06 03:28:00,
2013-04-05 22:33:00,60.8,44.1,29.89,SE,135,2.5,4.7,54,0.00,,,0.00,WUHU216HW,2013-04-06 03:33:00,
2013-04-05 22:38:00,60.8,44.1,29.88,SE,135,1.6,4.7,54,0.00,,,0.00,WUHU216HW,2013-04-06 03:38:00,
2013-04-05 22:43:00,60.8,44.1,29.88,SE,135,2.2,4.0,54,0.00,,,0.00,WUHU216HW,2013-04-06 03:43:00,
2013-04-05 22:48:00,60.8,44.1,29.88,SE,135,3.1,5.4,54,0.00,,,0.00,WUHU216HW,2013-04-06 03:48:00,
2013-04-05 22:53:00,60.8,44.1,29.88,South,180,2.5,6.5,54,0.00,,,0.00,WUHU216HW,2013-04-06 03:53:00,
2013-04-05 22:58:00,60.8,44.1,29.88,SE,135,5.8,6.5,54,0.00,,,0.00,WUHU216HW,2013-04-06 03:58:00,
2013-04-05 23:00:00,60.8,44.1,29.88,South,180,4.7,6.5,54,0.00,,,0.00,WUHU216HW,2013-04-06 04:00:00,
2013-04-05 23:05:00,60.8,44.1,29.88,South,180,3.1,8.1,54,0.00,,,0.00,WUHU216HW,2013-04-06 04:05:00,
2013-04-05 23:10:00,61.0,44.2,29.87,SSE,158,8.1,8.1,54,0.00,,,0.00,WUHU216HW,2013-04-06 04:10:00,
2013-04-05 23:15:00,61.0,44.2,29.87,SSW,203,5.4,9.2,54,0.00,,,0.00,WUHU216HW,2013-04-06 04:15:00,
2013-04-05 23:20:00,61.0,44.2,29.87,SE,135,9.8,9.8,54,0.00,,,0.00,WUHU216HW,2013-04-06 04:20:00,
2013-04-05 23:25:00,61.0,43.7,29.86,SE,135,11.4,11.9,53,0.00,,,0.00,WUHU216HW,2013-04-06 04:25:00,
2013-04-05 23:30:00,61.2,43.9,29.86,SSW,203,5.6,12.1,53,0.00,,,0.00,WUHU216HW,2013-04-06 04:30:00,
2013-04-05 23:35:00,61.0,43.7,29.86,South,180,3.1,12.1,53,0.00,,,0.00,WUHU216HW,2013-04-06 04:35:00,
2013-04-05 23:40:00,61.0,44.2,29.86,South,180,7.2,9.2,54,0.00,,,0.00,WUHU216HW,2013-04-06 04:40:00,
2013-04-05 23:45:00,61.0,44.2,29.86,SSW,203,4.0,8.5,54,0.00,,,0.00,WUHU216HW,2013-04-06 04:45:00,
2013-04-05 23:50:00,61.0,44.2,29.86,SSE,158,4.5,8.9,54,0.00,,,0.00,WUHU216HW,2013-04-06 04:50:00,
2013-04-05 23:55:00,61.0,44.2,29.86,SSE,158,4.0,8.9,54,0.00,,,0.00,WUHU216HW,2013-04-06 04:55:00,